sensor_id;sensor_type;location;lat;lon;timestamp;P1;durP1;ratioP1;P2;durP2;ratioP2
50128;SDS011;36026;45.478;9.224;2024-01-30T00:26:43;42.57;;;24.73;;
50128;SDS011;36026;45.478;9.224;2024-01-30T00:29:45;41.17;;;24.05;;
50128;SDS011;36026;45.478;9.224;2024-01-30T00:32:46;42.50;;;25.60;;
50128;SDS011;36026;45.478;9.224;2024-01-30T00:35:48;42.60;;;24.00;;
50128;SDS011;36026;45.478;9.224;2024-01-30T00:38:50;40.63;;;24.80;;
50128;SDS011;36026;45.478;9.224;2024-01-30T00:41:54;43.45;;;25.45;;
50128;SDS011;36026;45.478;9.224;2024-01-30T00:44:55;44.42;;;25.13;;
50128;SDS011;36026;45.478;9.224;2024-01-30T00:47:57;44.42;;;25.77;;
50128;SDS011;36026;45.478;9.224;2024-01-30T00:50:59;43.83;;;25.48;;
50128;SDS011;36026;45.478;9.224;2024-01-30T00:54:00;45.83;;;25.80;;
50128;SDS011;36026;45.478;9.224;2024-01-30T00:57:08;45.35;;;25.02;;
50128;SDS011;36026;45.478;9.224;2024-01-30T01:00:10;45.45;;;26.20;;
50128;SDS011;36026;45.478;9.224;2024-01-30T01:03:12;45.28;;;26.05;;
50128;SDS011;36026;45.478;9.224;2024-01-30T01:20:46;51.92;;;27.23;;
50128;SDS011;36026;45.478;9.224;2024-01-30T01:23:48;52.63;;;27.77;;
50128;SDS011;36026;45.478;9.224;2024-01-30T01:26:50;50.22;;;27.25;;
50128;SDS011;36026;45.478;9.224;2024-01-30T01:29:51;54.20;;;27.83;;
50128;SDS011;36026;45.478;9.224;2024-01-30T01:32:53;54.70;;;28.13;;
50128;SDS011;36026;45.478;9.224;2024-01-30T01:35:58;53.08;;;28.38;;
50128;SDS011;36026;45.478;9.224;2024-01-30T01:38:59;52.47;;;28.75;;
50128;SDS011;36026;45.478;9.224;2024-01-30T01:42:01;55.85;;;28.67;;
50128;SDS011;36026;45.478;9.224;2024-01-30T01:45:03;54.95;;;27.45;;
50128;SDS011;36026;45.478;9.224;2024-01-30T01:48:05;53.90;;;27.63;;
50128;SDS011;36026;45.478;9.224;2024-01-30T01:51:08;55.17;;;28.17;;
50128;SDS011;36026;45.478;9.224;2024-01-30T01:54:10;52.63;;;27.88;;
50128;SDS011;36026;45.478;9.224;2024-01-30T01:57:11;49.30;;;26.27;;
50128;SDS011;36026;45.478;9.224;2024-01-30T02:00:13;53.97;;;27.67;;
50128;SDS011;36026;45.478;9.224;2024-01-30T02:03:15;57.50;;;28.60;;
50128;SDS011;36026;45.478;9.224;2024-01-30T02:06:20;53.80;;;27.73;;
50128;SDS011;36026;45.478;9.224;2024-01-30T02:09:22;56.20;;;28.63;;
50128;SDS011;36026;45.478;9.224;2024-01-30T02:12:24;52.22;;;27.90;;
50128;SDS011;36026;45.478;9.224;2024-01-30T02:15:26;55.43;;;28.07;;
50128;SDS011;36026;45.478;9.224;2024-01-30T02:18:27;51.95;;;26.83;;
50128;SDS011;36026;45.478;9.224;2024-01-30T02:21:30;54.78;;;27.58;;
50128;SDS011;36026;45.478;9.224;2024-01-30T02:24:32;54.90;;;28.07;;
50128;SDS011;36026;45.478;9.224;2024-01-30T02:27:34;53.43;;;27.57;;
50128;SDS011;36026;45.478;9.224;2024-01-30T02:30:35;51.47;;;27.58;;
50128;SDS011;36026;45.478;9.224;2024-01-30T02:33:38;52.40;;;28.35;;
50128;SDS011;36026;45.478;9.224;2024-01-30T02:36:43;56.08;;;28.77;;
50128;SDS011;36026;45.478;9.224;2024-01-30T02:39:45;54.97;;;28.88;;
50128;SDS011;36026;45.478;9.224;2024-01-30T02:42:46;55.53;;;28.40;;
50128;SDS011;36026;45.478;9.224;2024-01-30T02:45:49;50.42;;;27.67;;
50128;SDS011;36026;45.478;9.224;2024-01-30T02:48:51;49.20;;;26.83;;
50128;SDS011;36026;45.478;9.224;2024-01-30T02:51:54;54.90;;;27.30;;
50128;SDS011;36026;45.478;9.224;2024-01-30T02:54:56;53.22;;;27.38;;
50128;SDS011;36026;45.478;9.224;2024-01-30T02:57:58;54.25;;;28.08;;
50128;SDS011;36026;45.478;9.224;2024-01-30T03:01:01;51.30;;;27.75;;
50128;SDS011;36026;45.478;9.224;2024-01-30T03:04:03;53.78;;;27.65;;
50128;SDS011;36026;45.478;9.224;2024-01-30T03:25:00;43.88;;;25.30;;
50128;SDS011;36026;45.478;9.224;2024-01-30T03:28:02;43.47;;;25.00;;
50128;SDS011;36026;45.478;9.224;2024-01-30T03:31:04;43.38;;;25.00;;
50128;SDS011;36026;45.478;9.224;2024-01-30T03:34:05;44.42;;;24.80;;
50128;SDS011;36026;45.478;9.224;2024-01-30T03:37:07;42.22;;;24.10;;
50128;SDS011;36026;45.478;9.224;2024-01-30T03:40:11;42.92;;;24.45;;
50128;SDS011;36026;45.478;9.224;2024-01-30T03:43:13;40.03;;;24.20;;
50128;SDS011;36026;45.478;9.224;2024-01-30T03:46:14;39.72;;;23.58;;
50128;SDS011;36026;45.478;9.224;2024-01-30T03:49:16;40.85;;;23.05;;
50128;SDS011;36026;45.478;9.224;2024-01-30T03:52:18;39.80;;;23.10;;
50128;SDS011;36026;45.478;9.224;2024-01-30T03:55:21;38.20;;;22.52;;
50128;SDS011;36026;45.478;9.224;2024-01-30T03:58:23;39.03;;;23.30;;
50128;SDS011;36026;45.478;9.224;2024-01-30T04:01:24;40.55;;;23.67;;
50128;SDS011;36026;45.478;9.224;2024-01-30T04:04:26;36.55;;;22.95;;
50128;SDS011;36026;45.478;9.224;2024-01-30T04:07:30;38.88;;;23.05;;
50128;SDS011;36026;45.478;9.224;2024-01-30T04:10:34;36.10;;;22.23;;
50128;SDS011;36026;45.478;9.224;2024-01-30T04:13:35;37.47;;;23.05;;
50128;SDS011;36026;45.478;9.224;2024-01-30T04:16:37;37.92;;;22.92;;
50128;SDS011;36026;45.478;9.224;2024-01-30T04:19:39;39.28;;;23.60;;
50128;SDS011;36026;45.478;9.224;2024-01-30T04:22:41;39.70;;;22.88;;
50128;SDS011;36026;45.478;9.224;2024-01-30T04:25:45;41.27;;;23.90;;
50128;SDS011;36026;45.478;9.224;2024-01-30T04:28:46;40.45;;;24.73;;
50128;SDS011;36026;45.478;9.224;2024-01-30T04:31:48;40.28;;;23.30;;
50128;SDS011;36026;45.478;9.224;2024-01-30T04:34:50;45.30;;;25.10;;
50128;SDS011;36026;45.478;9.224;2024-01-30T04:37:51;42.83;;;24.50;;
50128;SDS011;36026;45.478;9.224;2024-01-30T04:40:55;44.65;;;25.42;;
50128;SDS011;36026;45.478;9.224;2024-01-30T04:43:57;43.60;;;24.85;;
50128;SDS011;36026;45.478;9.224;2024-01-30T04:46:58;44.97;;;25.73;;
50128;SDS011;36026;45.478;9.224;2024-01-30T04:50:01;47.08;;;27.17;;
50128;SDS011;36026;45.478;9.224;2024-01-30T04:53:04;48.13;;;27.08;;
50128;SDS011;36026;45.478;9.224;2024-01-30T04:56:08;47.77;;;26.77;;
50128;SDS011;36026;45.478;9.224;2024-01-30T04:59:09;50.33;;;28.05;;
50128;SDS011;36026;45.478;9.224;2024-01-30T05:02:11;50.30;;;27.92;;
50128;SDS011;36026;45.478;9.224;2024-01-30T05:05:13;52.33;;;28.45;;
50128;SDS011;36026;45.478;9.224;2024-01-30T05:08:15;53.20;;;28.92;;
50128;SDS011;36026;45.478;9.224;2024-01-30T05:11:18;50.38;;;28.90;;
50128;SDS011;36026;45.478;9.224;2024-01-30T05:14:19;52.80;;;28.42;;
50128;SDS011;36026;45.478;9.224;2024-01-30T05:17:21;51.47;;;28.00;;
50128;SDS011;36026;45.478;9.224;2024-01-30T05:20:22;51.85;;;28.92;;
50128;SDS011;36026;45.478;9.224;2024-01-30T05:23:24;53.22;;;28.33;;
50128;SDS011;36026;45.478;9.224;2024-01-30T05:26:27;50.35;;;28.45;;
50128;SDS011;36026;45.478;9.224;2024-01-30T05:29:29;50.13;;;28.27;;
50128;SDS011;36026;45.478;9.224;2024-01-30T05:32:30;48.75;;;28.15;;
50128;SDS011;36026;45.478;9.224;2024-01-30T05:35:32;48.38;;;28.25;;
50128;SDS011;36026;45.478;9.224;2024-01-30T05:38:41;46.78;;;27.17;;
50128;SDS011;36026;45.478;9.224;2024-01-30T05:41:46;46.53;;;27.42;;
50128;SDS011;36026;45.478;9.224;2024-01-30T05:44:48;44.80;;;25.85;;
50128;SDS011;36026;45.478;9.224;2024-01-30T05:47:51;42.75;;;25.52;;
50128;SDS011;36026;45.478;9.224;2024-01-30T05:50:53;40.90;;;25.08;;
50128;SDS011;36026;45.478;9.224;2024-01-30T05:53:54;40.90;;;24.75;;
50128;SDS011;36026;45.478;9.224;2024-01-30T05:56:58;44.38;;;25.55;;
50128;SDS011;36026;45.478;9.224;2024-01-30T05:59:59;40.75;;;25.40;;
50128;SDS011;36026;45.478;9.224;2024-01-30T06:03:01;42.65;;;25.15;;
50128;SDS011;36026;45.478;9.224;2024-01-30T06:06:02;41.15;;;24.88;;
50128;SDS011;36026;45.478;9.224;2024-01-30T06:09:04;42.53;;;25.35;;
50128;SDS011;36026;45.478;9.224;2024-01-30T06:12:07;40.70;;;24.58;;
50128;SDS011;36026;45.478;9.224;2024-01-30T06:15:09;41.30;;;24.33;;
50128;SDS011;36026;45.478;9.224;2024-01-30T06:18:12;41.45;;;24.98;;
50128;SDS011;36026;45.478;9.224;2024-01-30T06:21:14;40.90;;;25.00;;
50128;SDS011;36026;45.478;9.224;2024-01-30T06:24:16;39.33;;;23.80;;
50128;SDS011;36026;45.478;9.224;2024-01-30T06:27:19;39.17;;;24.45;;
50128;SDS011;36026;45.478;9.224;2024-01-30T06:30:20;42.17;;;26.75;;
50128;SDS011;36026;45.478;9.224;2024-01-30T06:33:22;42.60;;;27.00;;
50128;SDS011;36026;45.478;9.224;2024-01-30T06:36:24;40.05;;;26.80;;
50128;SDS011;36026;45.478;9.224;2024-01-30T06:39:27;43.70;;;28.23;;
50128;SDS011;36026;45.478;9.224;2024-01-30T06:42:30;42.65;;;27.13;;
50128;SDS011;36026;45.478;9.224;2024-01-30T06:45:32;43.22;;;26.90;;
50128;SDS011;36026;45.478;9.224;2024-01-30T06:48:34;43.08;;;26.63;;
50128;SDS011;36026;45.478;9.224;2024-01-30T06:51:36;41.90;;;26.83;;
50128;SDS011;36026;45.478;9.224;2024-01-30T06:54:37;40.03;;;26.02;;
50128;SDS011;36026;45.478;9.224;2024-01-30T06:57:41;42.30;;;26.55;;
50128;SDS011;36026;45.478;9.224;2024-01-30T07:00:42;41.17;;;26.10;;
50128;SDS011;36026;45.478;9.224;2024-01-30T07:03:44;40.63;;;26.40;;
50128;SDS011;36026;45.478;9.224;2024-01-30T07:06:45;40.85;;;26.60;;
50128;SDS011;36026;45.478;9.224;2024-01-30T07:09:47;45.63;;;28.33;;
50128;SDS011;36026;45.478;9.224;2024-01-30T07:12:54;42.80;;;27.58;;
50128;SDS011;36026;45.478;9.224;2024-01-30T07:15:55;42.40;;;27.60;;
50128;SDS011;36026;45.478;9.224;2024-01-30T07:18:57;43.13;;;27.77;;
50128;SDS011;36026;45.478;9.224;2024-01-30T07:22:00;44.25;;;26.65;;
50128;SDS011;36026;45.478;9.224;2024-01-30T07:25:01;45.55;;;27.48;;
50128;SDS011;36026;45.478;9.224;2024-01-30T07:28:05;43.65;;;26.73;;
50128;SDS011;36026;45.478;9.224;2024-01-30T07:31:07;39.88;;;25.88;;
50128;SDS011;36026;45.478;9.224;2024-01-30T07:34:09;39.38;;;26.75;;
50128;SDS011;36026;45.478;9.224;2024-01-30T07:37:11;42.70;;;26.20;;
50128;SDS011;36026;45.478;9.224;2024-01-30T07:40:15;43.13;;;27.65;;
50128;SDS011;36026;45.478;9.224;2024-01-30T07:43:18;45.60;;;27.08;;
50128;SDS011;36026;45.478;9.224;2024-01-30T07:46:21;41.17;;;26.83;;
50128;SDS011;36026;45.478;9.224;2024-01-30T07:49:22;38.45;;;25.25;;
50128;SDS011;36026;45.478;9.224;2024-01-30T07:52:24;39.33;;;24.75;;
50128;SDS011;36026;45.478;9.224;2024-01-30T07:55:25;38.22;;;24.02;;
50128;SDS011;36026;45.478;9.224;2024-01-30T07:58:30;34.73;;;23.20;;
50128;SDS011;36026;45.478;9.224;2024-01-30T08:01:32;35.08;;;22.77;;
50128;SDS011;36026;45.478;9.224;2024-01-30T08:04:33;34.65;;;22.65;;
50128;SDS011;36026;45.478;9.224;2024-01-30T08:07:35;36.28;;;22.42;;
50128;SDS011;36026;45.478;9.224;2024-01-30T08:10:36;35.55;;;21.92;;
50128;SDS011;36026;45.478;9.224;2024-01-30T08:13:39;34.90;;;22.95;;
50128;SDS011;36026;45.478;9.224;2024-01-30T08:16:41;34.40;;;22.57;;
50128;SDS011;36026;45.478;9.224;2024-01-30T08:19:42;34.47;;;22.77;;
50128;SDS011;36026;45.478;9.224;2024-01-30T08:22:44;33.15;;;21.85;;
50128;SDS011;36026;45.478;9.224;2024-01-30T08:25:45;34.33;;;23.33;;
50128;SDS011;36026;45.478;9.224;2024-01-30T08:28:49;40.90;;;24.40;;
50128;SDS011;36026;45.478;9.224;2024-01-30T08:31:50;38.00;;;25.08;;
50128;SDS011;36026;45.478;9.224;2024-01-30T08:34:52;37.30;;;24.45;;
50128;SDS011;36026;45.478;9.224;2024-01-30T08:37:54;33.63;;;23.70;;
50128;SDS011;36026;45.478;9.224;2024-01-30T08:40:55;37.55;;;23.70;;
50128;SDS011;36026;45.478;9.224;2024-01-30T08:43:59;32.15;;;23.05;;
50128;SDS011;36026;45.478;9.224;2024-01-30T08:47:00;35.08;;;23.50;;
50128;SDS011;36026;45.478;9.224;2024-01-30T08:50:03;34.58;;;23.67;;
50128;SDS011;36026;45.478;9.224;2024-01-30T08:53:05;37.10;;;24.08;;
50128;SDS011;36026;45.478;9.224;2024-01-30T08:56:07;34.03;;;23.67;;
50128;SDS011;36026;45.478;9.224;2024-01-30T08:59:10;46.65;;;26.48;;
50128;SDS011;36026;45.478;9.224;2024-01-30T09:02:13;36.80;;;25.23;;
50128;SDS011;36026;45.478;9.224;2024-01-30T09:05:16;33.80;;;23.00;;
50128;SDS011;36026;45.478;9.224;2024-01-30T09:08:17;34.83;;;23.25;;
50128;SDS011;36026;45.478;9.224;2024-01-30T09:11:19;33.53;;;23.25;;
50128;SDS011;36026;45.478;9.224;2024-01-30T09:14:22;32.15;;;22.23;;
50128;SDS011;36026;45.478;9.224;2024-01-30T09:17:24;30.30;;;22.35;;
50128;SDS011;36026;45.478;9.224;2024-01-30T09:20:26;31.02;;;22.48;;
50128;SDS011;36026;45.478;9.224;2024-01-30T09:23:27;33.10;;;22.38;;
50128;SDS011;36026;45.478;9.224;2024-01-30T09:26:29;31.67;;;21.87;;
50128;SDS011;36026;45.478;9.224;2024-01-30T09:29:32;33.35;;;23.70;;
50128;SDS011;36026;45.478;9.224;2024-01-30T09:32:34;33.63;;;23.33;;
50128;SDS011;36026;45.478;9.224;2024-01-30T09:35:36;32.80;;;23.05;;
50128;SDS011;36026;45.478;9.224;2024-01-30T09:38:37;30.73;;;21.83;;
50128;SDS011;36026;45.478;9.224;2024-01-30T09:41:41;30.23;;;22.40;;
50128;SDS011;36026;45.478;9.224;2024-01-30T09:44:47;29.67;;;22.40;;
50128;SDS011;36026;45.478;9.224;2024-01-30T09:47:49;31.83;;;21.80;;
50128;SDS011;36026;45.478;9.224;2024-01-30T09:50:50;33.07;;;23.33;;
50128;SDS011;36026;45.478;9.224;2024-01-30T09:53:52;33.63;;;23.90;;
50128;SDS011;36026;45.478;9.224;2024-01-30T09:56:55;31.10;;;23.58;;
50128;SDS011;36026;45.478;9.224;2024-01-30T09:59:58;33.08;;;23.90;;
50128;SDS011;36026;45.478;9.224;2024-01-30T10:03:00;32.33;;;23.52;;
50128;SDS011;36026;45.478;9.224;2024-01-30T10:06:02;30.50;;;22.50;;
50128;SDS011;36026;45.478;9.224;2024-01-30T10:09:03;30.17;;;22.60;;
50128;SDS011;36026;45.478;9.224;2024-01-30T10:12:05;32.83;;;23.70;;
50128;SDS011;36026;45.478;9.224;2024-01-30T10:15:09;32.73;;;24.73;;
50128;SDS011;36026;45.478;9.224;2024-01-30T10:18:10;33.83;;;23.42;;
50128;SDS011;36026;45.478;9.224;2024-01-30T10:21:12;34.30;;;24.40;;
50128;SDS011;36026;45.478;9.224;2024-01-30T10:24:14;32.88;;;23.77;;
50128;SDS011;36026;45.478;9.224;2024-01-30T10:27:16;36.28;;;24.65;;
50128;SDS011;36026;45.478;9.224;2024-01-30T10:30:27;29.63;;;23.08;;
50128;SDS011;36026;45.478;9.224;2024-01-30T10:33:28;33.43;;;23.27;;
50128;SDS011;36026;45.478;9.224;2024-01-30T10:36:30;32.57;;;24.63;;
50128;SDS011;36026;45.478;9.224;2024-01-30T10:39:36;35.25;;;24.88;;
50128;SDS011;36026;45.478;9.224;2024-01-30T10:42:40;29.75;;;22.60;;
50128;SDS011;36026;45.478;9.224;2024-01-30T10:45:48;28.23;;;21.77;;
50128;SDS011;36026;45.478;9.224;2024-01-30T10:48:54;30.45;;;21.98;;
50128;SDS011;36026;45.478;9.224;2024-01-30T10:51:58;29.05;;;21.85;;
50128;SDS011;36026;45.478;9.224;2024-01-30T10:55:00;30.17;;;21.98;;
50128;SDS011;36026;45.478;9.224;2024-01-30T10:58:03;29.70;;;22.15;;
50128;SDS011;36026;45.478;9.224;2024-01-30T11:01:07;28.97;;;22.50;;
50128;SDS011;36026;45.478;9.224;2024-01-30T11:04:08;30.73;;;23.15;;
50128;SDS011;36026;45.478;9.224;2024-01-30T11:07:14;31.55;;;23.23;;
50128;SDS011;36026;45.478;9.224;2024-01-30T11:10:16;29.50;;;22.15;;
50128;SDS011;36026;45.478;9.224;2024-01-30T11:13:18;33.45;;;24.13;;
50128;SDS011;36026;45.478;9.224;2024-01-30T11:16:22;31.85;;;23.75;;
50128;SDS011;36026;45.478;9.224;2024-01-30T11:19:23;37.03;;;26.97;;
50128;SDS011;36026;45.478;9.224;2024-01-30T11:22:26;44.35;;;30.25;;
50128;SDS011;36026;45.478;9.224;2024-01-30T11:25:27;43.08;;;30.35;;
50128;SDS011;36026;45.478;9.224;2024-01-30T11:28:31;43.33;;;30.25;;
50128;SDS011;36026;45.478;9.224;2024-01-30T11:31:35;42.80;;;30.20;;
50128;SDS011;36026;45.478;9.224;2024-01-30T11:34:36;41.53;;;29.17;;
50128;SDS011;36026;45.478;9.224;2024-01-30T11:37:42;42.08;;;29.35;;
50128;SDS011;36026;45.478;9.224;2024-01-30T11:40:45;37.08;;;26.88;;
50128;SDS011;36026;45.478;9.224;2024-01-30T11:43:51;34.92;;;25.10;;
50128;SDS011;36026;45.478;9.224;2024-01-30T11:46:54;32.08;;;24.02;;
50128;SDS011;36026;45.478;9.224;2024-01-30T11:49:55;32.35;;;24.45;;
50128;SDS011;36026;45.478;9.224;2024-01-30T11:52:57;31.60;;;24.63;;
50128;SDS011;36026;45.478;9.224;2024-01-30T11:56:00;32.42;;;23.95;;
50128;SDS011;36026;45.478;9.224;2024-01-30T11:59:02;35.53;;;25.17;;
50128;SDS011;36026;45.478;9.224;2024-01-30T12:02:05;37.55;;;27.85;;
50128;SDS011;36026;45.478;9.224;2024-01-30T12:05:08;37.73;;;27.40;;
50128;SDS011;36026;45.478;9.224;2024-01-30T12:08:14;43.20;;;30.45;;
50128;SDS011;36026;45.478;9.224;2024-01-30T12:11:15;37.78;;;28.48;;
50128;SDS011;36026;45.478;9.224;2024-01-30T12:14:17;40.57;;;29.33;;
50128;SDS011;36026;45.478;9.224;2024-01-30T12:17:28;43.50;;;31.05;;
50128;SDS011;36026;45.478;9.224;2024-01-30T12:20:29;42.33;;;29.02;;
50128;SDS011;36026;45.478;9.224;2024-01-30T12:23:31;47.55;;;31.60;;
50128;SDS011;36026;45.478;9.224;2024-01-30T12:26:32;46.65;;;32.05;;
50128;SDS011;36026;45.478;9.224;2024-01-30T12:29:34;50.43;;;36.47;;
50128;SDS011;36026;45.478;9.224;2024-01-30T12:32:38;56.03;;;38.28;;
50128;SDS011;36026;45.478;9.224;2024-01-30T12:35:40;56.15;;;38.42;;
50128;SDS011;36026;45.478;9.224;2024-01-30T12:38:46;53.35;;;37.63;;
50128;SDS011;36026;45.478;9.224;2024-01-30T12:41:48;53.35;;;36.08;;
50128;SDS011;36026;45.478;9.224;2024-01-30T12:44:50;49.90;;;34.38;;
50128;SDS011;36026;45.478;9.224;2024-01-30T12:47:53;50.42;;;34.40;;
50128;SDS011;36026;45.478;9.224;2024-01-30T12:50:55;50.38;;;33.75;;
50128;SDS011;36026;45.478;9.224;2024-01-30T12:53:57;45.35;;;32.13;;
50128;SDS011;36026;45.478;9.224;2024-01-30T12:56:58;51.30;;;34.13;;
50128;SDS011;36026;45.478;9.224;2024-01-30T13:00:00;46.00;;;31.50;;
50128;SDS011;36026;45.478;9.224;2024-01-30T13:03:04;37.78;;;28.05;;
50128;SDS011;36026;45.478;9.224;2024-01-30T13:06:05;35.30;;;25.67;;
50128;SDS011;36026;45.478;9.224;2024-01-30T13:09:07;45.50;;;31.02;;
50128;SDS011;36026;45.478;9.224;2024-01-30T13:12:09;43.53;;;30.95;;
50128;SDS011;36026;45.478;9.224;2024-01-30T13:15:10;48.83;;;32.45;;
50128;SDS011;36026;45.478;9.224;2024-01-30T13:18:14;42.00;;;30.65;;
50128;SDS011;36026;45.478;9.224;2024-01-30T13:21:15;40.72;;;29.05;;
50128;SDS011;36026;45.478;9.224;2024-01-30T13:24:17;42.08;;;29.10;;
50128;SDS011;36026;45.478;9.224;2024-01-30T13:27:21;40.55;;;29.33;;
50128;SDS011;36026;45.478;9.224;2024-01-30T13:30:23;42.72;;;30.52;;
50128;SDS011;36026;45.478;9.224;2024-01-30T13:33:26;47.45;;;32.60;;
50128;SDS011;36026;45.478;9.224;2024-01-30T13:36:27;41.88;;;30.70;;
50128;SDS011;36026;45.478;9.224;2024-01-30T13:39:29;42.30;;;30.52;;
50128;SDS011;36026;45.478;9.224;2024-01-30T13:42:30;43.97;;;30.77;;
50128;SDS011;36026;45.478;9.224;2024-01-30T13:45:32;42.67;;;30.13;;
50128;SDS011;36026;45.478;9.224;2024-01-30T13:48:35;43.40;;;30.85;;
50128;SDS011;36026;45.478;9.224;2024-01-30T13:51:37;41.97;;;30.73;;
50128;SDS011;36026;45.478;9.224;2024-01-30T13:54:38;38.50;;;28.77;;
50128;SDS011;36026;45.478;9.224;2024-01-30T13:57:40;43.05;;;32.30;;
50128;SDS011;36026;45.478;9.224;2024-01-30T14:00:42;42.60;;;32.20;;
50128;SDS011;36026;45.478;9.224;2024-01-30T14:03:46;41.57;;;30.23;;
50128;SDS011;36026;45.478;9.224;2024-01-30T14:06:47;42.42;;;30.85;;
50128;SDS011;36026;45.478;9.224;2024-01-30T14:09:49;42.07;;;29.87;;
50128;SDS011;36026;45.478;9.224;2024-01-30T14:12:51;41.60;;;29.88;;
50128;SDS011;36026;45.478;9.224;2024-01-30T14:15:56;40.25;;;28.85;;
50128;SDS011;36026;45.478;9.224;2024-01-30T14:18:59;42.05;;;29.67;;
50128;SDS011;36026;45.478;9.224;2024-01-30T14:22:01;40.45;;;29.73;;
50128;SDS011;36026;45.478;9.224;2024-01-30T14:25:03;38.53;;;29.05;;
50128;SDS011;36026;45.478;9.224;2024-01-30T14:28:05;42.00;;;29.08;;
50128;SDS011;36026;45.478;9.224;2024-01-30T14:31:07;38.45;;;29.33;;
50128;SDS011;36026;45.478;9.224;2024-01-30T14:34:10;36.70;;;27.67;;
50128;SDS011;36026;45.478;9.224;2024-01-30T14:37:12;39.00;;;29.20;;
50128;SDS011;36026;45.478;9.224;2024-01-30T14:40:14;40.90;;;29.43;;
50128;SDS011;36026;45.478;9.224;2024-01-30T14:43:15;84.38;;;56.10;;
50128;SDS011;36026;45.478;9.224;2024-01-30T14:46:17;88.47;;;57.42;;
50128;SDS011;36026;45.478;9.224;2024-01-30T14:49:20;75.40;;;50.15;;
50128;SDS011;36026;45.478;9.224;2024-01-30T14:52:22;56.77;;;39.30;;
50128;SDS011;36026;45.478;9.224;2024-01-30T14:55:23;62.83;;;40.63;;
50128;SDS011;36026;45.478;9.224;2024-01-30T14:58:25;63.83;;;42.30;;
50128;SDS011;36026;45.478;9.224;2024-01-30T15:01:26;50.10;;;35.67;;
50128;SDS011;36026;45.478;9.224;2024-01-30T15:04:29;44.05;;;31.13;;
50128;SDS011;36026;45.478;9.224;2024-01-30T15:07:31;40.25;;;28.25;;
50128;SDS011;36026;45.478;9.224;2024-01-30T15:10:32;41.67;;;28.60;;
50128;SDS011;36026;45.478;9.224;2024-01-30T15:13:34;39.75;;;27.65;;
50128;SDS011;36026;45.478;9.224;2024-01-30T15:16:35;37.33;;;26.73;;
50128;SDS011;36026;45.478;9.224;2024-01-30T15:19:41;40.15;;;27.48;;
50128;SDS011;36026;45.478;9.224;2024-01-30T15:22:42;39.40;;;27.75;;
50128;SDS011;36026;45.478;9.224;2024-01-30T15:25:45;38.75;;;27.10;;
50128;SDS011;36026;45.478;9.224;2024-01-30T15:28:46;39.38;;;27.55;;
50128;SDS011;36026;45.478;9.224;2024-01-30T15:31:48;39.42;;;26.98;;
50128;SDS011;36026;45.478;9.224;2024-01-30T15:34:51;35.83;;;24.85;;
50128;SDS011;36026;45.478;9.224;2024-01-30T15:37:54;40.55;;;26.05;;
50128;SDS011;36026;45.478;9.224;2024-01-30T15:40:56;39.50;;;26.50;;
50128;SDS011;36026;45.478;9.224;2024-01-30T15:43:57;39.00;;;26.42;;
50128;SDS011;36026;45.478;9.224;2024-01-30T15:47:02;37.15;;;24.42;;
50128;SDS011;36026;45.478;9.224;2024-01-30T15:50:06;38.45;;;23.67;;
50128;SDS011;36026;45.478;9.224;2024-01-30T15:53:09;38.90;;;23.13;;
50128;SDS011;36026;45.478;9.224;2024-01-30T15:56:11;35.05;;;23.00;;
50128;SDS011;36026;45.478;9.224;2024-01-30T15:59:13;37.75;;;23.38;;
50128;SDS011;36026;45.478;9.224;2024-01-30T16:02:14;34.78;;;22.33;;
50128;SDS011;36026;45.478;9.224;2024-01-30T16:05:19;39.58;;;23.73;;
50128;SDS011;36026;45.478;9.224;2024-01-30T16:08:21;37.85;;;23.30;;
50128;SDS011;36026;45.478;9.224;2024-01-30T16:11:22;39.78;;;23.45;;
50128;SDS011;36026;45.478;9.224;2024-01-30T16:14:24;38.17;;;22.15;;
50128;SDS011;36026;45.478;9.224;2024-01-30T16:17:26;38.67;;;22.58;;
50128;SDS011;36026;45.478;9.224;2024-01-30T16:20:29;36.43;;;22.13;;
50128;SDS011;36026;45.478;9.224;2024-01-30T16:23:30;35.33;;;21.42;;
50128;SDS011;36026;45.478;9.224;2024-01-30T16:26:32;43.60;;;26.95;;
50128;SDS011;36026;45.478;9.224;2024-01-30T16:29:33;62.35;;;35.13;;
50128;SDS011;36026;45.478;9.224;2024-01-30T16:32:35;52.22;;;30.10;;
50128;SDS011;36026;45.478;9.224;2024-01-30T16:35:38;41.75;;;24.50;;
50128;SDS011;36026;45.478;9.224;2024-01-30T16:38:42;43.72;;;24.23;;
50128;SDS011;36026;45.478;9.224;2024-01-30T16:41:43;40.72;;;22.90;;
50128;SDS011;36026;45.478;9.224;2024-01-30T16:44:45;41.95;;;23.08;;
50128;SDS011;36026;45.478;9.224;2024-01-30T16:47:46;35.57;;;19.50;;
50128;SDS011;36026;45.478;9.224;2024-01-30T16:50:50;37.25;;;21.10;;
50128;SDS011;36026;45.478;9.224;2024-01-30T16:53:51;35.08;;;19.73;;
50128;SDS011;36026;45.478;9.224;2024-01-30T16:56:53;35.72;;;19.75;;
50128;SDS011;36026;45.478;9.224;2024-01-30T16:59:54;37.45;;;20.55;;
50128;SDS011;36026;45.478;9.224;2024-01-30T17:02:56;33.03;;;19.63;;
50128;SDS011;36026;45.478;9.224;2024-01-30T17:06:00;41.20;;;21.15;;
50128;SDS011;36026;45.478;9.224;2024-01-30T17:09:05;37.50;;;21.08;;
50128;SDS011;36026;45.478;9.224;2024-01-30T17:12:08;39.42;;;21.40;;
50128;SDS011;36026;45.478;9.224;2024-01-30T17:15:11;41.88;;;22.65;;
50128;SDS011;36026;45.478;9.224;2024-01-30T17:18:13;39.30;;;22.90;;
50128;SDS011;36026;45.478;9.224;2024-01-30T17:21:17;40.47;;;23.73;;
50128;SDS011;36026;45.478;9.224;2024-01-30T17:24:19;41.97;;;24.35;;
50128;SDS011;36026;45.478;9.224;2024-01-30T17:27:20;41.50;;;23.85;;
50128;SDS011;36026;45.478;9.224;2024-01-30T17:30:22;40.50;;;24.30;;
50128;SDS011;36026;45.478;9.224;2024-01-30T17:33:24;42.58;;;24.55;;
50128;SDS011;36026;45.478;9.224;2024-01-30T17:36:29;43.60;;;24.10;;
50128;SDS011;36026;45.478;9.224;2024-01-30T17:39:31;42.70;;;24.40;;
50128;SDS011;36026;45.478;9.224;2024-01-30T17:42:34;40.88;;;25.30;;
50128;SDS011;36026;45.478;9.224;2024-01-30T17:45:35;43.40;;;26.20;;
50128;SDS011;36026;45.478;9.224;2024-01-30T17:48:38;43.28;;;26.52;;
50128;SDS011;36026;45.478;9.224;2024-01-30T17:51:41;43.90;;;26.70;;
50128;SDS011;36026;45.478;9.224;2024-01-30T17:54:43;47.55;;;28.95;;
50128;SDS011;36026;45.478;9.224;2024-01-30T17:57:45;45.30;;;29.00;;
50128;SDS011;36026;45.478;9.224;2024-01-30T18:00:46;44.83;;;28.13;;
50128;SDS011;36026;45.478;9.224;2024-01-30T18:03:48;44.83;;;28.67;;
50128;SDS011;36026;45.478;9.224;2024-01-30T18:06:53;47.80;;;30.23;;
50128;SDS011;36026;45.478;9.224;2024-01-30T18:09:55;47.90;;;29.55;;
50128;SDS011;36026;45.478;9.224;2024-01-30T18:12:57;47.15;;;29.63;;
50128;SDS011;36026;45.478;9.224;2024-01-30T18:15:59;47.30;;;30.33;;
50128;SDS011;36026;45.478;9.224;2024-01-30T18:19:00;48.85;;;30.63;;
50128;SDS011;36026;45.478;9.224;2024-01-30T18:22:04;46.40;;;29.13;;
50128;SDS011;36026;45.478;9.224;2024-01-30T18:25:06;46.17;;;30.23;;
50128;SDS011;36026;45.478;9.224;2024-01-30T18:28:08;45.15;;;30.20;;
50128;SDS011;36026;45.478;9.224;2024-01-30T18:31:10;43.47;;;28.92;;
50128;SDS011;36026;45.478;9.224;2024-01-30T18:34:12;48.17;;;31.33;;
50128;SDS011;36026;45.478;9.224;2024-01-30T18:37:16;48.70;;;30.48;;
50128;SDS011;36026;45.478;9.224;2024-01-30T18:40:18;45.53;;;29.25;;
50128;SDS011;36026;45.478;9.224;2024-01-30T18:43:19;45.38;;;29.73;;